Adairo, Ohio
Current Conditions -  °F | °C
As of 7:52 PM on Friday 28 Nov 2014 (Local Time) from KMFD Reporting Station
Broken Clouds Broken Clouds  
Wind Chill: 17°   Ceiling: 12000
Heat Index: 27°   Visibility: 10mi
Dew Point: 21°   Wind: 12mph
Humidity: 78%   Direction: 160°SSE
Pressure: 30.13"   Gusts: NA
Location:  40.9484°N, 82.5121°W
Report Text: KMFD 290052Z 16010KT 10SM SCT100 BKN120 M03/M06 A3013 RMK AO2 SLP222 T10281061
Loading
Personal Weather Stations






























Interactive Weather Map New forecast layout! Learn more

10-Day Weather Forecast

Advertisements
Track Severe Weather on mobile